»·PEaware :: DAL2189 KSLC-KPDX

DAL2189 :: KSLC-KPDX

FLIGHT INFORMATION

Flight Status: Arrived
Operator:
Delta Air Lines
More flights by this operator :: More flights under this callsign
Pilot: Joe P. (13940)
Aircraft: BOEING 737-700
(B737)
More flights by this aircraft type
Origin: KSLC Salt Lake City Intl
United States
Destination: KPDX Portland Intl
United States
More flights between these airports :: More routes between these airports
Route: +CGULL1 TWF J15 BOI J163 BKE JOTBA HHOOD4
File this flight plan on PilotEdge
Remarks: KSEA -PBN / A1B1C1D1L1O1S1 NAV / RNVD1E2A1 DOF / 180826 REG / N389DA EET / KZSE0057 RVR / 200 PER / C
Altitude:
(Current/Filed)
340ft
Speed:
(Current/Filed)
457kts
Departed: 26-Aug-18 06:37 AM
Arrived: 26-Aug-18 08:12 AM
Distance/Time
Traveled:
546nm/1:35
Distance/Time
To Go:
Arrived

Flight Plot

Page will automatically refresh every two minutes.

Flight plan parsing failed; only flown route is shown


Map Options




Map Legend


Flown Route
Filed Route
Departure Airport
Arrival Airport
Navaid (VOR, NDB)
Fix

Horizontal Profiles

Position Reports

Time Latitude Longitude Heading Altitude Ground
Speed
26-Aug-18 05:45 40.788528 -111.980747 282 4234ft 0kts
26-Aug-18 05:46 40.788528 -111.980747 282 4234ft 0kts
26-Aug-18 05:47 40.788528 -111.980747 282 4234ft 0kts
26-Aug-18 05:48 40.788528 -111.980747 282 4234ft 0kts
26-Aug-18 05:49 40.788528 -111.980747 282 4234ft 0kts
26-Aug-18 05:50 40.788528 -111.980747 282 4234ft 0kts
26-Aug-18 05:51 40.788528 -111.980747 282 4234ft 0kts
26-Aug-18 05:52 40.788528 -111.980747 282 4234ft 0kts
26-Aug-18 05:53 40.788528 -111.980747 282 4234ft 0kts
26-Aug-18 05:54 40.788528 -111.980747 282 4234ft 0kts
26-Aug-18 05:55 40.788528 -111.980747 282 4234ft 0kts
26-Aug-18 05:56 40.788528 -111.980747 282 4234ft 0kts
26-Aug-18 05:57 40.788528 -111.980747 282 4234ft 0kts
26-Aug-18 05:58 40.788528 -111.980747 282 4234ft 0kts
26-Aug-18 05:59 40.788528 -111.980747 282 4234ft 0kts
26-Aug-18 06:00 40.788528 -111.980747 282 4234ft 0kts
26-Aug-18 06:01 40.788528 -111.980747 282 4234ft 0kts
26-Aug-18 06:02 40.788528 -111.980747 282 4234ft 0kts
26-Aug-18 06:03 40.788528 -111.980747 282 4234ft 0kts
26-Aug-18 06:04 40.788528 -111.980747 282 4234ft 0kts
26-Aug-18 06:05 40.788528 -111.980747 282 4234ft 0kts
26-Aug-18 06:06 40.788528 -111.980747 282 4234ft 0kts
26-Aug-18 06:07 40.788528 -111.980747 282 4234ft 0kts
26-Aug-18 06:08 40.788528 -111.980747 282 4235ft 0kts
26-Aug-18 06:09 40.788528 -111.980747 282 4235ft 0kts
26-Aug-18 06:10 40.788528 -111.980747 282 4235ft 0kts
26-Aug-18 06:11 40.788528 -111.980747 282 4235ft 0kts
26-Aug-18 06:12 40.788528 -111.980747 282 4235ft 0kts
26-Aug-18 06:13 40.788528 -111.980747 282 4234ft 0kts
26-Aug-18 06:14 40.788528 -111.980747 282 4234ft 0kts
26-Aug-18 06:15 40.788528 -111.980747 282 4234ft 0kts
26-Aug-18 06:16 40.788528 -111.980747 282 4234ft 0kts
26-Aug-18 06:17 40.788528 -111.980747 282 4234ft 0kts
26-Aug-18 06:18 40.788528 -111.980747 282 4234ft 0kts
26-Aug-18 06:19 40.788528 -111.980747 282 4234ft 0kts
26-Aug-18 06:20 40.788528 -111.980747 282 4234ft 0kts
26-Aug-18 06:21 40.788528 -111.980747 282 4234ft 0kts
26-Aug-18 06:22 40.788528 -111.980747 282 4234ft 0kts
26-Aug-18 06:23 40.788528 -111.980747 282 4234ft 0kts
26-Aug-18 06:24 40.788528 -111.980747 282 4234ft 0kts
26-Aug-18 06:25 40.788528 -111.980747 282 4234ft 0kts
26-Aug-18 06:26 40.788431 -111.980174 282 4234ft 2kts
26-Aug-18 06:27 40.788333 -111.979591 282 4234ft 0kts
26-Aug-18 06:28 40.788333 -111.979591 282 4234ft 0kts
26-Aug-18 06:29 40.788333 -111.979592 282 4234ft 0kts
26-Aug-18 06:30 40.788333 -111.979594 282 4234ft 0kts
26-Aug-18 06:31 40.788924 -111.979906 2 4234ft 9kts
26-Aug-18 06:32 40.790444 -111.977227 4 4234ft 7kts
26-Aug-18 06:33 40.793210 -111.978504 354 4234ft 15kts
26-Aug-18 06:34 40.798436 -111.979079 355 4234ft 19kts
26-Aug-18 06:35 40.803625 -111.979702 354 4234ft 19kts
26-Aug-18 06:36 40.807490 -111.979247 74 4234ft 14kts
26-Aug-18 06:37 40.806562 -111.976769 174 4234ft 0kts
26-Aug-18 06:38 40.781361 -111.973828 174 4463ft 181kts
26-Aug-18 06:39 40.750439 -112.012816 286 6724ft 214kts
26-Aug-18 06:40 40.807416 -112.064446 330 8038ft 290kts
26-Aug-18 06:41 40.867796 -112.135492 310 11071ft 297kts
26-Aug-18 06:42 40.929856 -112.223986 308 12538ft 357kts
26-Aug-18 06:43 40.998601 -112.323018 307 15055ft 370kts
26-Aug-18 06:44 41.070881 -112.423156 314 17495ft 386kts
26-Aug-18 06:45 41.162682 -112.503923 321 19691ft 402kts
26-Aug-18 06:46 41.252416 -112.593723 316 21635ft 409kts
26-Aug-18 06:47 41.332970 -112.699565 306 23368ft 410kts
26-Aug-18 06:48 41.410372 -112.813712 305 24884ft 419kts
26-Aug-18 06:49 41.487758 -112.932351 305 26285ft 428kts
26-Aug-18 06:50 41.566506 -113.053698 305 27552ft 436kts
26-Aug-18 06:51 41.646525 -113.177110 305 28700ft 443kts
26-Aug-18 06:52 41.727051 -113.301205 304 30269ft 439kts
26-Aug-18 06:53 41.806523 -113.424575 303 31749ft 435kts
26-Aug-18 06:54 41.885283 -113.547455 303 33125ft 432kts
26-Aug-18 06:55 41.963368 -113.669721 303 34077ft 434kts
26-Aug-18 06:56 42.041801 -113.792772 302 34090ft 429kts
26-Aug-18 06:57 42.119072 -113.915191 302 34096ft 429kts
26-Aug-18 06:58 42.196339 -114.037698 302 34098ft 429kts
26-Aug-18 06:59 42.273670 -114.160394 302 34101ft 429kts
26-Aug-18 07:00 42.351303 -114.283271 302 34105ft 429kts
26-Aug-18 07:01 42.428048 -114.406189 302 34109ft 428kts
26-Aug-18 07:02 42.505190 -114.528851 304 34110ft 428kts
26-Aug-18 07:03 42.583811 -114.650513 304 34106ft 427kts
26-Aug-18 07:04 42.661864 -114.772124 304 34104ft 427kts
26-Aug-18 07:05 42.739900 -114.893658 304 34099ft 426kts
26-Aug-18 07:06 42.817704 -115.015030 304 34096ft 425kts
26-Aug-18 07:07 42.895193 -115.136745 304 34093ft 424kts
26-Aug-18 07:08 42.972355 -115.258572 305 34090ft 424kts
26-Aug-18 07:09 43.049175 -115.380386 305 34086ft 423kts
26-Aug-18 07:10 43.125825 -115.502460 305 34084ft 422kts
26-Aug-18 07:11 43.202103 -115.624457 306 34081ft 421kts
26-Aug-18 07:12 43.278036 -115.746422 306 34083ft 420kts
26-Aug-18 07:13 43.353784 -115.868404 307 34083ft 419kts
26-Aug-18 07:14 43.429174 -115.990222 307 34082ft 418kts
26-Aug-18 07:15 43.503715 -116.111819 308 34080ft 415kts
26-Aug-18 07:16 43.582700 -116.229079 316 34080ft 418kts
26-Aug-18 07:17 43.669694 -116.335169 316 34077ft 418kts
26-Aug-18 07:18 43.756720 -116.442089 316 34074ft 417kts
26-Aug-18 07:19 43.843267 -116.548512 316 34076ft 416kts
26-Aug-18 07:20 43.929999 -116.655282 316 34080ft 415kts
26-Aug-18 07:21 44.015923 -116.761808 316 34080ft 414kts
26-Aug-18 07:22 44.101161 -116.867972 317 34080ft 410kts
26-Aug-18 07:23 44.185939 -116.974008 317 34080ft 409kts
26-Aug-18 07:24 44.270310 -117.079985 317 34082ft 407kts
26-Aug-18 07:25 44.354303 -117.185922 318 34086ft 405kts
26-Aug-18 07:26 44.437695 -117.291533 318 34093ft 405kts
26-Aug-18 07:27 44.521063 -117.397542 318 34098ft 403kts
26-Aug-18 07:28 44.603840 -117.503181 318 34103ft 402kts
26-Aug-18 07:29 44.686752 -117.609085 318 34107ft 403kts
26-Aug-18 07:30 44.769302 -117.715586 318 34109ft 402kts
26-Aug-18 07:31 44.838291 -117.837391 289 34115ft 412kts
26-Aug-18 07:32 44.863446 -117.996124 286 34109ft 415kts
26-Aug-18 07:33 44.885162 -118.156222 286 34108ft 416kts
26-Aug-18 07:34 44.906117 -118.316742 286 34108ft 416kts
26-Aug-18 07:35 44.927155 -118.477441 286 34105ft 417kts
26-Aug-18 07:36 44.947600 -118.638316 286 34106ft 417kts
26-Aug-18 07:37 44.967733 -118.799652 286 34106ft 417kts
26-Aug-18 07:38 44.987634 -118.961388 286 34099ft 417kts
26-Aug-18 07:39 45.007248 -119.122875 286 34090ft 418kts
26-Aug-18 07:40 45.026693 -119.285037 286 34090ft 418kts
26-Aug-18 07:41 45.045941 -119.447557 286 34095ft 419kts
26-Aug-18 07:42 45.064900 -119.609678 286 34093ft 418kts
26-Aug-18 07:43 45.083378 -119.769624 286 34088ft 409kts
26-Aug-18 07:44 45.101505 -119.928704 285 33407ft 405kts
26-Aug-18 07:45 45.119355 -120.086283 285 30982ft 400kts
26-Aug-18 07:46 45.136631 -120.239732 284 29017ft 389kts
26-Aug-18 07:47 45.152806 -120.388910 283 27136ft 378kts
26-Aug-18 07:48 45.174555 -120.531947 296 25282ft 364kts
26-Aug-18 07:49 45.220729 -120.658491 300 23427ft 358kts
26-Aug-18 07:50 45.268196 -120.781692 300 21600ft 353kts
26-Aug-18 07:51 45.314765 -120.903643 299 19791ft 348kts
26-Aug-18 07:52 45.360384 -121.023795 299 18009ft 344kts
26-Aug-18 07:53 45.405103 -121.141526 299 16496ft 334kts
26-Aug-18 07:54 45.441070 -121.262980 287 14682ft 330kts
26-Aug-18 07:55 45.464586 -121.385165 287 13253ft 310kts
26-Aug-18 07:56 45.487263 -121.499275 288 12049ft 282kts
26-Aug-18 07:57 45.507460 -121.601983 287 11004ft 263kts
26-Aug-18 07:58 45.523042 -121.681884 287 10577ft 239kts
26-Aug-18 07:59 45.532711 -121.792214 274 8583ft 227kts
26-Aug-18 08:00 45.534907 -121.861885 274 7724ft 197kts
26-Aug-18 08:01 45.537856 -121.948320 275 6649ft 175kts
26-Aug-18 08:02 45.540985 -122.006870 276 6685ft 181kts
26-Aug-18 08:03 45.521822 -122.083740 237 6376ft 187kts
26-Aug-18 08:04 45.496567 -122.133432 238 6015ft 182kts
26-Aug-18 08:05 45.470164 -122.195535 250 5079ft 187kts
26-Aug-18 08:06 45.459765 -122.265855 289 3758ft 181kts
26-Aug-18 08:07 45.480900 -122.328162 298 3681ft 172kts
26-Aug-18 08:08 45.502409 -122.383753 298 3111ft 155kts
26-Aug-18 08:09 45.523252 -122.437144 299 2329ft 153kts
26-Aug-18 08:10 45.544128 -122.490616 299 1479ft 154kts
26-Aug-18 08:11 45.565157 -122.544521 300 653ft 153kts
26-Aug-18 08:12 45.585292 -122.595939 300 30ft 133kts
26-Aug-18 08:13 45.592477 -122.613269 356 26ft 10kts
26-Aug-18 08:14 45.592495 -122.609781 120 26ft 17kts
26-Aug-18 08:15 45.591472 -122.605967 92 26ft 0kts
26-Aug-18 08:16 45.591414 -122.603543 91 26ft 17kts
26-Aug-18 08:17 45.592233 -122.597737 31 26ft 14kts
26-Aug-18 08:18 45.592214 -122.594803 118 26ft 14kts
26-Aug-18 08:19 45.591264 -122.594136 201 26ft 0kts
26-Aug-18 08:20 45.591264 -122.594136 201 26ft 0kts
26-Aug-18 08:21 45.591264 -122.594136 201 26ft 0kts
26-Aug-18 08:22 45.591264 -122.594136 201 26ft 0kts
26-Aug-18 08:23 45.591264 -122.594136 201 26ft 0kts
26-Aug-18 08:24 45.591264 -122.594136 201 26ft 0kts
26-Aug-18 08:25 45.591264 -122.594136 201 26ft 0kts
26-Aug-18 08:26 45.591264 -122.594136 201 26ft 0kts
26-Aug-18 08:27 45.591264 -122.594136 201 26ft 0kts

Navigation Log

Ident Type
Flight plan parsing failed, navigation log unavailable